createdAt,value
2022-08-21T00:00:29.371Z,73.49
2022-08-21T00:03:05.867Z,73.08
2022-08-21T00:05:38.557Z,73.52
2022-08-21T00:08:05.924Z,73.57
2022-08-21T00:10:34.130Z,73.23
2022-08-21T00:13:03.112Z,73.21
2022-08-21T00:15:32.278Z,73.44
2022-08-21T00:18:00.124Z,73.52
2022-08-21T00:20:28.134Z,73.64
2022-08-21T00:22:57.459Z,73.69
2022-08-21T00:25:26.179Z,74.14
2022-08-21T00:27:54.663Z,73.71
2022-08-21T00:30:24.904Z,74.05
2022-08-21T00:32:54.439Z,74.34
2022-08-21T00:35:26.840Z,74.52
2022-08-21T00:37:53.777Z,74.44
2022-08-21T00:40:31.121Z,74.53
2022-08-21T00:42:58.543Z,74.61
2022-08-21T00:45:26.708Z,74.36
2022-08-21T00:47:56.153Z,74.65
2022-08-21T00:50:24.064Z,74.52
2022-08-21T00:52:52.936Z,74.80
2022-08-21T00:55:23.843Z,74.80
2022-08-21T00:57:55.905Z,75.11
2022-08-21T01:00:30.310Z,75.50
2022-08-21T01:03:00.085Z,75.64
2022-08-21T01:05:28.060Z,75.44
2022-08-21T01:07:58.157Z,75.46
2022-08-21T01:10:25.575Z,75.71
2022-08-21T01:12:56.254Z,75.81
2022-08-21T01:15:29.709Z,76.33
2022-08-21T01:17:56.597Z,76.31
2022-08-21T01:20:32.890Z,76.29
2022-08-21T01:23:02.508Z,76.65
2022-08-21T01:25:29.705Z,76.83
2022-08-21T01:27:58.401Z,76.66
2022-08-21T01:30:28.654Z,76.77
2022-08-21T01:32:56.887Z,76.82
2022-08-21T01:35:24.247Z,76.55
2022-08-21T01:37:51.106Z,76.57
2022-08-21T01:40:19.429Z,76.66
2022-08-21T01:42:47.575Z,76.61
2022-08-21T01:45:16.020Z,76.78
2022-08-21T01:47:44.403Z,77.08
2022-08-21T01:50:15.515Z,76.79
2022-08-21T01:52:42.884Z,76.92
2022-08-21T01:55:12.583Z,77.26
2022-08-21T01:57:39.900Z,76.95
2022-08-21T02:00:12.098Z,77.31
2022-08-21T02:02:41.506Z,77.12
2022-08-21T02:05:12.134Z,77.51
2022-08-21T02:07:47.908Z,77.65
2022-08-21T02:10:18.952Z,77.55
2022-08-21T02:12:46.820Z,77.71
2022-08-21T02:15:13.888Z,77.71
2022-08-21T02:18:01.564Z,77.55
2022-08-21T02:20:39.727Z,77.66
2022-08-21T02:23:09.192Z,77.80
2022-08-21T02:25:36.836Z,77.92
2022-08-21T02:28:08.701Z,77.86
2022-08-21T02:30:40.704Z,78.02
2022-08-21T02:33:10.575Z,77.71
2022-08-21T02:35:38.851Z,77.63
2022-08-21T02:38:16.684Z,77.91
2022-08-21T02:40:48.242Z,77.79
2022-08-21T02:43:20.584Z,77.93
2022-08-21T02:45:48.452Z,78.30
2022-08-21T02:48:19.404Z,78.35
2022-08-21T02:51:01.292Z,78.86
2022-08-21T02:53:29.488Z,78.36
2022-08-21T02:56:00.941Z,78.54
2022-08-21T02:58:35.315Z,78.39
2022-08-21T03:03:30.584Z,78.59
2022-08-21T03:05:58.138Z,78.62
2022-08-21T03:08:26.476Z,78.56
2022-08-21T03:10:55.390Z,78.75
2022-08-21T03:13:23.240Z,78.90
2022-08-21T03:15:51.391Z,78.50
2022-08-21T03:18:19.122Z,78.90
2022-08-21T03:20:46.815Z,78.86
2022-08-21T03:23:19.026Z,79.04
2022-08-21T03:25:49.273Z,78.83
2022-08-21T03:28:21.221Z,78.42
2022-08-21T03:30:50.948Z,78.52
2022-08-21T03:33:20.556Z,78.77
2022-08-21T03:35:59.356Z,78.51
2022-08-21T03:38:26.861Z,78.63
2022-08-21T03:40:54.814Z,78.39
2022-08-21T03:43:22.167Z,78.35
2022-08-21T03:45:49.089Z,78.21
2022-08-21T03:48:16.258Z,77.94
2022-08-21T03:50:47.861Z,78.16
2022-08-21T03:53:17.815Z,77.89
2022-08-21T03:55:47.710Z,77.83
2022-08-21T03:58:17.719Z,77.89
2022-08-21T04:00:51.368Z,77.71
2022-08-21T04:03:19.516Z,77.68
2022-08-21T04:05:47.084Z,77.88
2022-08-21T04:08:16.103Z,77.81
2022-08-21T04:10:45.047Z,77.92
2022-08-21T04:13:11.999Z,77.92
2022-08-21T04:15:39.277Z,77.79
2022-08-21T04:18:06.937Z,78.12
2022-08-21T04:20:34.759Z,77.87
2022-08-21T04:23:03.320Z,78.08
2022-08-21T04:25:30.535Z,78.00
2022-08-21T04:27:58.336Z,78.25
2022-08-21T04:30:28.497Z,78.19
2022-08-21T04:32:58.294Z,78.44
2022-08-21T04:35:28.178Z,78.36
2022-08-21T04:37:55.350Z,78.12
2022-08-21T04:40:26.550Z,78.40
2022-08-21T04:42:58.065Z,78.36
2022-08-21T04:45:30.243Z,78.32
2022-08-21T04:48:00.900Z,78.38
2022-08-21T04:50:39.721Z,78.46
2022-08-21T04:53:17.112Z,78.76
2022-08-21T04:55:44.571Z,78.74
2022-08-21T04:58:15.074Z,78.59
2022-08-21T05:00:42.812Z,78.61
2022-08-21T05:03:12.896Z,78.55
2022-08-21T05:05:40.980Z,78.80
2022-08-21T05:08:10.773Z,78.41
2022-08-21T05:10:37.886Z,78.32
2022-08-21T05:13:06.541Z,78.37
2022-08-21T05:15:33.770Z,78.58
2022-08-21T05:18:01.538Z,78.67
2022-08-21T05:20:30.009Z,78.70
2022-08-21T05:22:57.733Z,78.88
2022-08-21T05:25:24.802Z,78.94
2022-08-21T05:27:52.540Z,78.83
2022-08-21T05:30:21.483Z,78.81
2022-08-21T05:32:48.953Z,78.92
2022-08-21T05:35:16.212Z,78.82
2022-08-21T05:37:43.368Z,78.47
2022-08-21T05:40:21.627Z,78.39
2022-08-21T05:42:55.486Z,78.28
2022-08-21T05:45:43.383Z,78.24
2022-08-21T05:48:19.631Z,78.17
2022-08-21T05:50:49.641Z,78.39
2022-08-21T05:53:19.515Z,78.09
2022-08-21T05:55:47.480Z,78.01
2022-08-21T05:58:17.966Z,77.81
2022-08-21T06:00:48.441Z,77.76
2022-08-21T06:03:21.173Z,77.69
2022-08-21T06:05:48.621Z,77.51
2022-08-21T06:08:17.961Z,77.40
2022-08-21T06:10:47.190Z,77.35
2022-08-21T06:13:15.811Z,77.22
2022-08-21T06:15:43.573Z,77.12
2022-08-21T06:18:10.664Z,77.17
2022-08-21T06:20:38.044Z,77.13
2022-08-21T06:23:05.076Z,77.01
2022-08-21T06:25:32.417Z,76.81
2022-08-21T06:28:08.645Z,76.67
2022-08-21T06:30:38.200Z,76.20
2022-08-21T06:33:05.515Z,75.67
2022-08-21T06:35:32.445Z,75.63
2022-08-21T06:38:00.205Z,75.26
2022-08-21T06:40:30.162Z,74.70
2022-08-21T06:43:10.433Z,74.25
2022-08-21T06:45:37.688Z,73.48
2022-08-21T06:48:05.473Z,73.06
2022-08-21T06:50:32.355Z,72.57
2022-08-21T06:53:06.366Z,72.11
2022-08-21T06:55:34.193Z,71.85
2022-08-21T06:58:01.589Z,71.94
2022-08-21T07:00:28.933Z,71.88
2022-08-21T07:02:55.933Z,71.35
2022-08-21T07:05:23.634Z,71.08
2022-08-21T07:07:50.543Z,70.36
2022-08-21T07:10:22.748Z,69.73
2022-08-21T07:13:00.785Z,69.36
2022-08-21T07:15:31.345Z,69.22
2022-08-21T07:18:02.318Z,68.85
2022-08-21T07:20:31.632Z,68.89
2022-08-21T07:23:03.733Z,68.88
2022-08-21T07:25:30.763Z,68.35
2022-08-21T07:27:57.641Z,67.98
2022-08-21T07:30:25.502Z,67.87
2022-08-21T07:32:52.919Z,67.79
2022-08-21T07:35:21.529Z,67.39
2022-08-21T07:37:48.775Z,67.25
2022-08-21T07:40:16.881Z,67.22
2022-08-21T07:42:48.170Z,67.31
2022-08-21T07:45:15.824Z,66.88
2022-08-21T07:47:43.114Z,67.04
2022-08-21T07:50:12.679Z,67.01
2022-08-21T07:52:41.231Z,66.61
2022-08-21T07:55:12.168Z,66.71
2022-08-21T07:57:39.833Z,66.85
2022-08-21T08:00:12.146Z,66.83
2022-08-21T08:02:39.630Z,66.72
2022-08-21T08:05:12.447Z,66.89
2022-08-21T08:07:39.773Z,67.03
2022-08-21T08:10:08.680Z,66.74
2022-08-21T08:12:37.682Z,66.36
2022-08-21T08:15:10.513Z,65.53
2022-08-21T08:17:39.806Z,64.90
2022-08-21T08:20:09.256Z,64.37
2022-08-21T08:22:38.775Z,63.97
2022-08-21T08:25:09.561Z,62.91
2022-08-21T08:27:37.261Z,61.56
2022-08-21T08:30:06.189Z,61.96
2022-08-21T08:32:33.402Z,61.57
2022-08-21T08:35:00.740Z,60.89
2022-08-21T08:37:27.772Z,60.41
2022-08-21T08:40:03.456Z,60.35
2022-08-21T08:42:38.141Z,60.58
2022-08-21T08:45:17.558Z,61.06
2022-08-21T08:48:00.725Z,61.86
2022-08-21T08:50:54.016Z,62.02
2022-08-21T08:53:37.501Z,62.28
2022-08-21T08:56:07.046Z,62.53
2022-08-21T08:58:42.520Z,63.02
2022-08-21T09:01:19.157Z,63.17
2022-08-21T09:03:52.995Z,63.21
2022-08-21T09:06:46.612Z,61.99
2022-08-21T09:09:30.928Z,62.00
2022-08-21T09:12:45.117Z,61.48
2022-08-21T09:15:36.140Z,61.61
2022-08-21T09:18:21.733Z,61.96
2022-08-21T09:21:10.431Z,61.46
2022-08-21T09:24:02.128Z,61.15
2022-08-21T09:26:48.975Z,61.31
2022-08-21T09:29:21.878Z,61.36
2022-08-21T09:31:49.535Z,61.42
2022-08-21T09:34:32.441Z,61.60
2022-08-21T09:37:00.632Z,61.68
2022-08-21T09:39:41.898Z,61.74
2022-08-21T09:42:11.814Z,61.55
2022-08-21T09:44:44.492Z,61.52
2022-08-21T09:47:16.174Z,61.32
2022-08-21T09:49:44.609Z,60.98
2022-08-21T09:52:23.429Z,60.53
2022-08-21T09:54:56.164Z,59.85
2022-08-21T09:57:39.512Z,59.63
2022-08-21T10:00:27.668Z,60.16
2022-08-21T10:02:54.753Z,60.03
2022-08-21T10:05:26.879Z,60.11
2022-08-21T10:07:53.929Z,59.99
2022-08-21T10:10:28.027Z,60.28
2022-08-21T10:13:16.084Z,60.91
2022-08-21T10:15:56.740Z,60.63
2022-08-21T10:18:50.909Z,60.79
2022-08-21T10:21:41.401Z,60.80
2022-08-21T10:24:21.424Z,60.43
2022-08-21T10:27:17.567Z,60.27
2022-08-21T10:29:52.153Z,59.64
2022-08-21T10:32:41.387Z,59.31
2022-08-21T10:35:15.062Z,59.02
2022-08-21T10:38:46.217Z,58.71
2022-08-21T10:41:23.416Z,58.75
2022-08-21T10:44:10.636Z,58.94
2022-08-21T10:47:01.579Z,58.28
2022-08-21T10:50:21.248Z,57.71
2022-08-21T10:53:26.687Z,57.79
2022-08-21T10:56:18.500Z,57.09
2022-08-21T10:59:18.289Z,57.07
2022-08-21T11:02:16.324Z,56.96
2022-08-21T11:05:07.148Z,56.79
2022-08-21T11:07:46.276Z,57.44
2022-08-21T11:10:29.397Z,57.08
2022-08-21T11:13:08.307Z,56.17
2022-08-21T11:15:45.459Z,56.03
2022-08-21T11:18:36.076Z,54.46
2022-08-21T11:21:27.580Z,53.52
2022-08-21T11:24:05.739Z,53.87
2022-08-21T11:26:44.226Z,53.30
2022-08-21T11:29:29.224Z,52.80
2022-08-21T11:32:26.852Z,53.23
2022-08-21T11:35:18.404Z,53.41
2022-08-21T11:38:22.096Z,52.61
2022-08-21T11:41:22.969Z,52.19
2022-08-21T11:43:58.731Z,51.94
2022-08-21T11:46:42.023Z,51.35
2022-08-21T11:49:41.266Z,50.72
2022-08-21T11:52:41.940Z,50.73
2022-08-21T11:55:27.513Z,50.79
2022-08-21T11:57:58.309Z,50.38
2022-08-21T12:00:51.167Z,51.16
2022-08-21T12:03:29.319Z,49.90
2022-08-21T12:06:24.428Z,50.16
2022-08-21T12:09:13.449Z,49.96
2022-08-21T12:12:14.928Z,50.16
2022-08-21T12:14:51.991Z,49.78
2022-08-21T12:17:28.190Z,49.86
2022-08-21T12:20:01.421Z,50.09
2022-08-21T12:22:42.139Z,49.64
2022-08-21T12:25:21.556Z,50.15
2022-08-21T12:27:54.104Z,50.48
2022-08-21T12:30:27.511Z,50.51
2022-08-21T12:33:02.685Z,50.40
2022-08-21T12:35:40.654Z,50.76
2022-08-21T12:38:25.488Z,51.23
2022-08-21T12:40:58.904Z,50.94
2022-08-21T12:43:34.713Z,51.62
2022-08-21T12:46:05.588Z,51.27
2022-08-21T12:49:16.054Z,51.56
2022-08-21T12:52:10.544Z,50.64
2022-08-21T12:54:45.168Z,50.87
2022-08-21T12:57:29.180Z,50.87
2022-08-21T13:00:02.875Z,50.55
2022-08-21T13:02:35.145Z,50.50
2022-08-21T13:05:07.224Z,50.43
2022-08-21T13:07:37.138Z,49.36
2022-08-21T13:10:35.318Z,49.73
2022-08-21T13:13:12.818Z,49.58
2022-08-21T13:15:46.425Z,49.12
2022-08-21T13:18:32.926Z,48.71
2022-08-21T13:21:14.119Z,48.20
2022-08-21T13:23:41.992Z,46.86
2022-08-21T13:26:21.608Z,47.22
2022-08-21T13:28:51.419Z,47.11
2022-08-21T13:31:28.658Z,46.79
2022-08-21T13:33:56.722Z,46.98
2022-08-21T13:36:32.461Z,46.90
2022-08-21T13:39:00.496Z,46.45
2022-08-21T13:41:36.243Z,46.54
2022-08-21T13:44:18.491Z,46.52
2022-08-21T13:46:49.428Z,46.53
2022-08-21T13:49:25.475Z,46.28
2022-08-21T13:51:53.280Z,46.07
2022-08-21T13:54:41.963Z,45.74
2022-08-21T13:57:27.648Z,45.90
2022-08-21T13:59:54.424Z,46.48
2022-08-21T14:02:25.322Z,46.25
2022-08-21T14:05:01.386Z,46.98
2022-08-21T14:07:36.789Z,46.50
2022-08-21T14:10:19.273Z,46.65
2022-08-21T14:12:58.646Z,46.80
2022-08-21T14:15:30.343Z,47.13
2022-08-21T14:18:17.773Z,46.88
2022-08-21T14:20:46.171Z,47.07
2022-08-21T14:23:15.140Z,47.33
2022-08-21T14:25:45.504Z,47.14
2022-08-21T14:28:29.557Z,47.32
2022-08-21T14:30:58.188Z,47.39
2022-08-21T14:33:33.154Z,47.60
2022-08-21T14:36:00.377Z,47.57
2022-08-21T14:38:29.309Z,46.82
2022-08-21T14:41:09.843Z,47.20
2022-08-21T14:43:36.985Z,47.21
2022-08-21T14:46:04.192Z,47.17
2022-08-21T14:48:31.009Z,47.23
2022-08-21T14:51:00.550Z,46.71
2022-08-21T14:53:27.835Z,46.88
2022-08-21T14:56:07.968Z,47.03
2022-08-21T14:58:39.399Z,47.33
2022-08-21T15:01:09.571Z,47.25
2022-08-21T15:03:37.248Z,47.23
2022-08-21T15:06:07.222Z,47.26
2022-08-21T15:08:34.646Z,47.30
2022-08-21T15:11:13.597Z,47.47
2022-08-21T15:13:42.523Z,47.48
2022-08-21T15:16:12.361Z,48.01
2022-08-21T15:18:39.572Z,48.16
2022-08-21T15:21:06.674Z,48.56
2022-08-21T15:23:33.862Z,48.11
2022-08-21T15:26:00.715Z,47.65
2022-08-21T15:28:31.693Z,47.57
2022-08-21T15:31:02.006Z,47.54
2022-08-21T15:33:30.000Z,47.96
2022-08-21T15:35:57.377Z,47.47
2022-08-21T15:38:24.393Z,47.48
2022-08-21T15:40:52.354Z,47.45
2022-08-21T15:43:30.676Z,47.07
2022-08-21T15:46:00.435Z,47.21
2022-08-21T15:48:27.745Z,47.33
2022-08-21T15:50:54.680Z,46.66
2022-08-21T15:53:21.579Z,47.11
2022-08-21T15:55:48.548Z,47.26
2022-08-21T15:58:17.130Z,47.45
2022-08-21T16:00:45.417Z,47.60
2022-08-21T16:03:17.987Z,47.49
2022-08-21T16:05:46.442Z,47.52
2022-08-21T16:08:13.304Z,48.15
2022-08-21T16:10:41.333Z,48.30
2022-08-21T16:13:20.454Z,48.24
2022-08-21T16:15:47.596Z,47.99
2022-08-21T16:18:15.161Z,48.60
2022-08-21T16:20:42.035Z,48.55
2022-08-21T16:23:09.063Z,48.43
2022-08-21T16:25:39.584Z,49.17
2022-08-21T16:28:10.548Z,48.93
2022-08-21T16:30:40.912Z,49.00
2022-08-21T16:33:42.189Z,49.41
2022-08-21T16:36:12.921Z,49.12
2022-08-21T16:38:41.975Z,49.42
2022-08-21T16:41:14.188Z,49.80
2022-08-21T16:43:43.665Z,50.15
2022-08-21T16:46:14.196Z,50.28
2022-08-21T16:48:42.528Z,50.61
2022-08-21T16:51:09.409Z,50.45
2022-08-21T16:53:36.291Z,50.76
2022-08-21T16:56:06.390Z,51.21
2022-08-21T16:58:37.105Z,51.79
2022-08-21T17:01:09.819Z,53.03
2022-08-21T17:03:45.924Z,54.54
2022-08-21T17:06:14.908Z,55.18
2022-08-21T17:08:42.338Z,56.01
2022-08-21T17:11:32.524Z,56.86
2022-08-21T17:14:15.615Z,57.70
2022-08-21T17:16:47.337Z,58.50
2022-08-21T17:19:14.826Z,59.34
2022-08-21T17:21:42.055Z,59.87
2022-08-21T17:24:09.766Z,60.00
2022-08-21T17:26:37.680Z,60.25
2022-08-21T17:29:09.932Z,59.88
2022-08-21T17:31:37.902Z,59.93
2022-08-21T17:34:06.737Z,59.33
2022-08-21T17:36:34.151Z,59.19
2022-08-21T17:39:01.173Z,59.12
2022-08-21T17:41:28.491Z,58.62
2022-08-21T17:43:55.986Z,58.27
2022-08-21T17:46:27.900Z,58.48
2022-08-21T17:48:56.165Z,58.30
2022-08-21T17:51:24.078Z,58.21
2022-08-21T17:53:51.251Z,58.14
2022-08-21T17:56:19.560Z,58.21
2022-08-21T17:58:50.816Z,58.36
2022-08-21T18:01:19.887Z,58.62
2022-08-21T18:03:48.052Z,58.69
2022-08-21T18:06:18.037Z,59.12
2022-08-21T18:08:46.135Z,59.28
2022-08-21T18:11:23.292Z,59.51
2022-08-21T18:13:53.262Z,59.66
2022-08-21T18:16:21.769Z,60.14
2022-08-21T18:18:51.686Z,60.47
2022-08-21T18:21:19.171Z,60.73
2022-08-21T18:23:46.171Z,61.04
2022-08-21T18:26:16.837Z,61.40
2022-08-21T18:28:44.553Z,61.56
2022-08-21T18:31:12.537Z,61.85
2022-08-21T18:33:56.891Z,61.83
2022-08-21T18:36:27.552Z,61.93
2022-08-21T18:39:08.568Z,61.64
2022-08-21T18:41:46.019Z,61.61
2022-08-21T18:44:15.628Z,61.82
2022-08-21T18:46:52.108Z,61.58
2022-08-21T18:49:19.611Z,61.30
2022-08-21T18:51:47.275Z,61.62
2022-08-21T18:54:15.095Z,61.79
2022-08-21T18:56:42.544Z,61.75
2022-08-21T18:59:11.622Z,61.62
2022-08-21T19:01:39.048Z,61.68
2022-08-21T19:04:08.908Z,62.05
2022-08-21T19:06:36.874Z,61.98
2022-08-21T19:09:08.641Z,62.17
2022-08-21T19:11:43.110Z,62.02
2022-08-21T19:14:15.745Z,62.15
2022-08-21T19:16:46.956Z,62.27
2022-08-21T19:19:30.247Z,62.41
2022-08-21T19:21:58.028Z,62.87
2022-08-21T19:24:26.367Z,62.99
2022-08-21T19:26:55.774Z,62.90
2022-08-21T19:29:35.001Z,63.05
2022-08-21T19:32:06.148Z,62.86
2022-08-21T19:34:34.932Z,62.96
2022-08-21T19:37:03.350Z,63.28
2022-08-21T19:39:40.235Z,63.44
2022-08-21T19:44:57.721Z,64.03
2022-08-21T19:47:29.363Z,64.34
2022-08-21T19:49:59.898Z,64.44
2022-08-21T19:52:27.417Z,64.63
2022-08-21T19:54:54.802Z,65.05
2022-08-21T19:57:22.159Z,65.44
2022-08-21T19:59:49.792Z,65.86
2022-08-21T20:02:19.819Z,66.01
2022-08-21T20:04:54.060Z,66.24
2022-08-21T20:07:34.995Z,66.54
2022-08-21T20:10:02.563Z,66.69
2022-08-21T20:12:32.489Z,66.84
2022-08-21T20:15:02.078Z,67.13
2022-08-21T20:17:29.390Z,67.04
2022-08-21T20:19:56.523Z,66.98
2022-08-21T20:22:23.920Z,66.99
2022-08-21T20:24:51.303Z,67.37
2022-08-21T20:27:29.698Z,67.99
2022-08-21T20:29:56.697Z,67.62
2022-08-21T20:32:24.150Z,67.69
2022-08-21T20:34:53.738Z,67.38
2022-08-21T20:37:35.967Z,67.84
2022-08-21T20:40:10.993Z,67.98
2022-08-21T20:42:40.416Z,68.52
2022-08-21T20:45:08.772Z,68.61
2022-08-21T20:47:37.732Z,68.86
2022-08-21T20:50:14.065Z,68.84
2022-08-21T20:52:42.319Z,68.94
2022-08-21T20:55:29.150Z,69.20
2022-08-21T20:58:04.694Z,69.26
2022-08-21T21:00:35.816Z,70.33
2022-08-21T21:03:26.386Z,69.50
2022-08-21T21:06:05.160Z,69.60
2022-08-21T21:08:40.363Z,69.82
2022-08-21T21:11:28.326Z,70.17
2022-08-21T21:14:06.029Z,70.24
2022-08-21T21:16:40.831Z,70.51
2022-08-21T21:19:24.189Z,70.47
2022-08-21T21:22:03.300Z,70.31
2022-08-21T21:24:43.923Z,70.61
2022-08-21T21:27:40.936Z,71.25
2022-08-21T21:30:22.028Z,71.40
2022-08-21T21:32:50.494Z,71.70
2022-08-21T21:35:33.073Z,71.88
2022-08-21T21:38:51.703Z,72.23
2022-08-21T21:41:28.315Z,72.19
2022-08-21T21:44:16.487Z,72.08
2022-08-21T21:46:48.536Z,72.66
2022-08-21T21:49:39.964Z,73.20
2022-08-21T21:52:36.124Z,73.38
2022-08-21T21:55:18.385Z,72.71
2022-08-21T21:58:46.219Z,73.34
2022-08-21T22:01:38.107Z,73.30
2022-08-21T22:04:05.768Z,73.47
2022-08-21T22:07:17.718Z,74.12
2022-08-21T22:09:59.669Z,74.44
2022-08-21T22:12:55.899Z,74.52
2022-08-21T22:15:26.443Z,74.52
2022-08-21T22:18:16.073Z,74.86
2022-08-21T22:20:47.279Z,75.04
2022-08-21T22:23:23.430Z,75.49
2022-08-21T22:25:56.560Z,75.04
2022-08-21T22:28:27.437Z,75.01
2022-08-21T22:31:21.456Z,75.59
2022-08-21T22:34:18.319Z,75.28
2022-08-21T22:37:10.334Z,75.47
2022-08-21T22:39:45.172Z,75.12
2022-08-21T22:42:21.703Z,75.50
2022-08-21T22:44:57.093Z,75.53
2022-08-21T22:47:41.623Z,75.91
2022-08-21T22:50:29.799Z,76.00
2022-08-21T22:53:02.280Z,75.67
2022-08-21T22:55:56.172Z,75.50
2022-08-21T22:58:34.366Z,75.38
2022-08-21T23:01:32.459Z,75.53
2022-08-21T23:04:17.823Z,75.46
2022-08-21T23:07:02.272Z,75.61
2022-08-21T23:09:46.276Z,75.80
2022-08-21T23:15:18.993Z,76.27
2022-08-21T23:18:06.796Z,77.00
2022-08-21T23:20:56.258Z,76.85
2022-08-21T23:23:34.914Z,77.00
2022-08-21T23:26:34.119Z,77.58
2022-08-21T23:29:24.834Z,77.42
2022-08-21T23:32:04.342Z,77.47
2022-08-21T23:34:55.416Z,77.65
2022-08-21T23:37:51.509Z,77.80
2022-08-21T23:40:50.535Z,77.43
2022-08-21T23:43:37.857Z,76.95
2022-08-21T23:46:34.547Z,76.99
2022-08-21T23:49:47.279Z,76.52
2022-08-21T23:52:26.267Z,76.34
2022-08-21T23:55:23.152Z,76.39
2022-08-21T23:58:13.375Z,76.01
